Time;durP1;ratioP1;P1;durP2;ratioP2;P2;SDS_P1;SDS_P2;PMS_P1;PMS_P2;Temp;Humidity;BMP_temperature;BMP_pressure;BME280_temperature;BME280_humidity;BME280_pressure;Samples;Min_cycle;Max_cycle;Signal;HPM_P1;HPM_P2
2022/06/04 00:00:54;;;;;;;7.43;3.22;;;;;;;;;;5014942;28;20209;-44
2022/06/04 00:03:22;;;;;;;3.60;3.30;;;;;;;;;;5015119;28;20225;-44
2022/06/04 00:05:51;;;;;;;3.30;3.00;;;;;;;;;;5014977;28;20233;-44
2022/06/04 00:08:19;;;;;;;3.72;2.95;;;;;;;;;;5014810;28;20213;-44
2022/06/04 00:16:21;;;;;;;4.82;3.00;;;;;;;;;;5014764;28;20194;-44
2022/06/04 00:18:49;;;;;;;4.22;3.05;;;;;;;;;;5014466;28;20213;-44
2022/06/04 00:21:21;;;;;;;3.15;2.80;;;;;;;;;;5015178;28;20190;-44
2022/06/04 00:23:48;;;;;;;6.00;2.95;;;;;;;;;;5014411;28;20205;-43
2022/06/04 00:26:16;;;;;;;4.28;2.50;;;;;;;;;;5014358;28;20275;-45
2022/06/04 00:28:46;;;;;;;5.78;3.30;;;;;;;;;;5014559;28;20213;-44
2022/06/04 00:31:14;;;;;;;6.95;2.83;;;;;;;;;;5014361;28;20186;-44
2022/06/04 00:33:41;;;;;;;5.00;2.67;;;;;;;;;;5015153;28;20197;-43
2022/06/04 00:36:08;;;;;;;4.07;2.72;;;;;;;;;;5016718;28;20237;-43
2022/06/04 00:38:35;;;;;;;4.47;3.08;;;;;;;;;;5018200;28;20213;-44
2022/06/04 00:41:40;;;;;;;4.93;2.88;;;;;;;;;;5018122;28;20209;-44
2022/06/04 00:44:10;;;;;;;5.93;3.40;;;;;;;;;;5018844;28;20193;-44
2022/06/04 00:46:40;;;;;;;4.65;2.97;;;;;;;;;;5017797;28;20189;-44
2022/06/04 00:49:12;;;;;;;4.10;2.80;;;;;;;;;;5018147;28;20260;-44
2022/06/04 00:51:41;;;;;;;5.25;3.10;;;;;;;;;;5017814;28;20687;-44
2022/06/04 00:54:09;;;;;;;5.28;3.13;;;;;;;;;;5017726;28;20249;-44
2022/06/04 00:57:03;;;;;;;4.43;2.90;;;;;;;;;;5017597;28;20522;-44
2022/06/04 00:59:59;;;;;;;6.18;3.38;;;;;;;;;;5017412;28;20200;-44
2022/06/04 01:02:54;;;;;;;6.00;3.40;;;;;;;;;;5016667;28;20232;-44
2022/06/04 01:05:33;;;;;;;7.45;3.20;;;;;;;;;;5016476;28;20209;-46
2022/06/04 01:08:12;;;;;;;5.18;3.17;;;;;;;;;;5017102;28;20419;-44
2022/06/04 01:11:12;;;;;;;3.30;3.03;;;;;;;;;;5017166;28;20604;-44
2022/06/04 01:13:42;;;;;;;3.90;3.33;;;;;;;;;;5013805;28;20198;-47
2022/06/04 01:16:15;;;;;;;6.80;3.58;;;;;;;;;;5017221;28;20228;-43
2022/06/04 01:18:53;;;;;;;4.40;3.40;;;;;;;;;;5016691;28;20193;-43
2022/06/04 01:21:47;;;;;;;3.70;3.40;;;;;;;;;;5016648;28;20205;-44
2022/06/04 01:24:22;;;;;;;3.92;3.63;;;;;;;;;;5011794;28;20213;-44
2022/06/04 01:27:12;;;;;;;5.03;3.50;;;;;;;;;;5016971;28;20193;-44
2022/06/04 01:29:46;;;;;;;3.22;2.92;;;;;;;;;;5015967;28;20197;-45
2022/06/04 01:32:16;;;;;;;6.03;3.10;;;;;;;;;;5017633;28;20188;-44
2022/06/04 01:34:50;;;;;;;4.22;3.33;;;;;;;;;;5016814;28;20225;-44
2022/06/04 01:37:38;;;;;;;5.63;3.03;;;;;;;;;;5017000;28;20200;-43
2022/06/04 01:42:57;;;;;;;4.18;3.78;;;;;;;;;;5016378;28;20640;-44
2022/06/04 01:45:24;;;;;;;3.78;3.08;;;;;;;;;;5015880;28;20264;-44
2022/06/04 01:47:53;;;;;;;3.85;3.33;;;;;;;;;;5015701;28;20209;-44
2022/06/04 01:50:24;;;;;;;6.43;3.60;;;;;;;;;;5015704;28;20224;-44
2022/06/04 01:52:51;;;;;;;3.72;3.33;;;;;;;;;;5015956;28;20308;-44
2022/06/04 01:55:26;;;;;;;4.80;3.70;;;;;;;;;;5015550;28;20232;-45
2022/06/04 01:57:53;;;;;;;3.30;2.90;;;;;;;;;;5015657;28;20192;-44
2022/06/04 02:00:24;;;;;;;5.50;3.22;;;;;;;;;;5016492;28;20213;-45
2022/06/04 02:02:58;;;;;;;4.78;3.60;;;;;;;;;;4994856;28;20213;-45
2022/06/04 02:05:32;;;;;;;4.43;2.85;;;;;;;;;;4978682;28;20640;-44
2022/06/04 02:08:02;;;;;;;3.97;3.58;;;;;;;;;;4978526;28;20261;-44
2022/06/04 02:10:33;;;;;;;5.63;4.25;;;;;;;;;;4978689;28;20214;-44
2022/06/04 02:13:04;;;;;;;8.75;3.88;;;;;;;;;;4978703;28;20201;-44
2022/06/04 02:15:51;;;;;;;6.57;4.10;;;;;;;;;;4994801;28;20214;-44
2022/06/04 02:18:19;;;;;;;5.13;3.83;;;;;;;;;;4978769;28;20250;-45
2022/06/04 02:20:46;;;;;;;8.00;4.50;;;;;;;;;;4994498;28;20648;-45
2022/06/04 02:23:13;;;;;;;7.15;4.20;;;;;;;;;;4994488;28;20265;-45
2022/06/04 02:25:40;;;;;;;7.57;4.07;;;;;;;;;;4994571;28;20206;-44
2022/06/04 02:28:08;;;;;;;6.30;4.40;;;;;;;;;;4994544;28;20210;-44
2022/06/04 02:30:43;;;;;;;7.40;3.88;;;;;;;;;;4978375;28;20230;-45
2022/06/04 02:33:23;;;;;;;4.63;3.90;;;;;;;;;;4983819;28;20275;-47
2022/06/04 02:36:00;;;;;;;4.70;4.20;;;;;;;;;;5015159;28;20228;-44
2022/06/04 02:38:41;;;;;;;11.93;4.75;;;;;;;;;;5015952;28;20193;-44
2022/06/04 02:41:30;;;;;;;7.35;5.05;;;;;;;;;;5015037;28;20614;-44
2022/06/04 02:44:05;;;;;;;6.05;4.85;;;;;;;;;;5014600;28;20538;-44
2022/06/04 02:47:01;;;;;;;8.35;4.70;;;;;;;;;;5015090;28;20185;-46
2022/06/04 02:49:39;;;;;;;5.88;4.30;;;;;;;;;;4955557;29;20203;-44
2022/06/04 02:52:08;;;;;;;5.07;4.55;;;;;;;;;;4939999;29;20191;-44
2022/06/04 02:54:55;;;;;;;4.88;4.47;;;;;;;;;;4939828;29;20214;-44
2022/06/04 02:57:22;;;;;;;6.00;4.70;;;;;;;;;;4955784;29;20197;-45
2022/06/04 02:59:50;;;;;;;8.00;4.82;;;;;;;;;;4955577;28;20211;-44
2022/06/04 03:02:19;;;;;;;5.78;5.10;;;;;;;;;;4939682;29;20231;-45
2022/06/04 03:04:50;;;;;;;8.77;5.53;;;;;;;;;;4955540;29;20207;-44
2022/06/04 03:07:20;;;;;;;8.57;5.13;;;;;;;;;;4955295;29;20302;-45
2022/06/04 03:09:49;;;;;;;5.95;5.28;;;;;;;;;;4955293;29;20207;-45
2022/06/04 03:12:16;;;;;;;6.07;5.25;;;;;;;;;;4939330;29;20234;-45
2022/06/04 03:14:44;;;;;;;9.70;5.18;;;;;;;;;;4955249;29;20203;-44
2022/06/04 03:17:12;;;;;;;5.45;4.90;;;;;;;;;;4955297;29;20278;-44
2022/06/04 03:19:40;;;;;;;6.28;4.95;;;;;;;;;;4955190;29;20199;-44
2022/06/04 03:22:07;;;;;;;8.85;5.25;;;;;;;;;;4954120;28;20521;-45
2022/06/04 03:24:34;;;;;;;7.70;5.20;;;;;;;;;;4954908;29;20203;-45
2022/06/04 03:27:01;;;;;;;7.00;5.47;;;;;;;;;;4987657;28;20210;-45
2022/06/04 03:29:28;;;;;;;7.35;5.32;;;;;;;;;;4995499;28;20217;-44
2022/06/04 03:31:56;;;;;;;7.38;4.80;;;;;;;;;;4995147;28;20213;-45
2022/06/04 03:34:23;;;;;;;6.22;5.53;;;;;;;;;;4995610;28;20202;-44
2022/06/04 03:36:50;;;;;;;9.48;5.10;;;;;;;;;;4995447;28;20236;-44
2022/06/04 03:39:17;;;;;;;6.22;5.10;;;;;;;;;;4995174;28;20220;-44
2022/06/04 03:41:44;;;;;;;6.70;5.60;;;;;;;;;;4995466;28;20202;-46
2022/06/04 03:44:11;;;;;;;5.97;4.90;;;;;;;;;;4995081;28;20600;-44
2022/06/04 03:46:38;;;;;;;5.57;5.00;;;;;;;;;;4995216;28;20216;-44
2022/06/04 03:49:06;;;;;;;8.50;5.50;;;;;;;;;;4995381;28;20214;-44
2022/06/04 03:51:34;;;;;;;5.75;5.25;;;;;;;;;;4995101;28;20641;-44
2022/06/04 03:54:01;;;;;;;5.78;5.25;;;;;;;;;;4995188;28;20637;-44
2022/06/04 03:56:28;;;;;;;6.20;5.70;;;;;;;;;;4995527;28;20583;-44
2022/06/04 03:58:55;;;;;;;7.00;5.28;;;;;;;;;;4994941;28;20206;-44
2022/06/04 04:01:25;;;;;;;8.43;4.90;;;;;;;;;;4995504;28;20226;-44
2022/06/04 04:03:52;;;;;;;5.57;5.07;;;;;;;;;;4995286;28;20206;-43
2022/06/04 04:06:23;;;;;;;7.07;5.40;;;;;;;;;;4995576;28;20242;-44
2022/06/04 04:08:51;;;;;;;5.90;5.35;;;;;;;;;;4995117;28;20588;-44
2022/06/04 04:11:21;;;;;;;5.97;5.38;;;;;;;;;;4997442;28;20217;-44
2022/06/04 04:13:51;;;;;;;5.45;5.00;;;;;;;;;;4999111;28;20253;-44
2022/06/04 04:16:19;;;;;;;6.00;5.43;;;;;;;;;;4998963;28;20210;-44
2022/06/04 04:18:46;;;;;;;6.55;5.57;;;;;;;;;;4998738;28;20550;-44
2022/06/04 04:21:16;;;;;;;5.90;5.30;;;;;;;;;;4999661;28;20288;-46
2022/06/04 04:23:44;;;;;;;5.60;5.10;;;;;;;;;;5036167;28;20201;-44
2022/06/04 04:26:13;;;;;;;6.38;5.28;;;;;;;;;;5033671;28;20217;-44
2022/06/04 04:28:40;;;;;;;7.82;5.35;;;;;;;;;;5018294;28;20267;-44
2022/06/04 04:31:17;;;;;;;5.72;5.05;;;;;;;;;;5018600;28;20206;-44
2022/06/04 04:33:44;;;;;;;6.45;5.60;;;;;;;;;;5018678;28;20579;-44
2022/06/04 04:36:11;;;;;;;5.55;5.05;;;;;;;;;;5017786;28;20675;-43
2022/06/04 04:38:38;;;;;;;7.88;5.38;;;;;;;;;;5018150;28;20208;-44
2022/06/04 04:41:10;;;;;;;6.10;5.50;;;;;;;;;;5018217;28;20209;-44
2022/06/04 04:43:39;;;;;;;6.05;5.30;;;;;;;;;;5017707;28;20285;-44
2022/06/04 04:46:08;;;;;;;7.13;5.10;;;;;;;;;;5017818;28;20552;-44
2022/06/04 04:48:36;;;;;;;7.45;5.63;;;;;;;;;;5017952;28;20205;-44
2022/06/04 04:51:04;;;;;;;6.13;5.03;;;;;;;;;;5009904;28;20209;-44
2022/06/04 04:53:31;;;;;;;5.20;4.68;;;;;;;;;;5007277;28;20193;-44
2022/06/04 04:55:58;;;;;;;6.03;4.70;;;;;;;;;;4997732;28;20544;-44
2022/06/04 04:58:25;;;;;;;7.18;5.43;;;;;;;;;;5008678;28;20198;-45
2022/06/04 05:00:53;;;;;;;7.75;5.10;;;;;;;;;;5012611;28;20209;-47
2022/06/04 05:03:20;;;;;;;5.20;4.65;;;;;;;;;;5005340;28;20425;-46
2022/06/04 05:06:02;;;;;;;5.30;4.72;;;;;;;;;;5006126;28;20209;-44
2022/06/04 05:08:31;;;;;;;4.72;4.30;;;;;;;;;;5021648;28;20680;-48
2022/06/04 05:11:12;;;;;;;4.72;4.30;;;;;;;;;;5013421;28;20232;-45
2022/06/04 05:13:40;;;;;;;8.32;4.85;;;;;;;;;;5012277;28;20574;-48
2022/06/04 05:16:07;;;;;;;7.25;4.50;;;;;;;;;;5015158;28;20229;-45
2022/06/04 05:18:34;;;;;;;7.80;4.03;;;;;;;;;;5011905;28;20313;-45
2022/06/04 05:21:11;;;;;;;6.57;4.15;;;;;;;;;;5006828;28;20222;-47
2022/06/04 05:23:39;;;;;;;6.15;4.07;;;;;;;;;;5004132;28;20217;-44
2022/06/04 05:26:06;;;;;;;4.60;4.20;;;;;;;;;;5006255;28;20229;-46
2022/06/04 05:28:33;;;;;;;5.00;3.95;;;;;;;;;;5005039;28;20244;-45
2022/06/04 05:31:00;;;;;;;3.80;3.50;;;;;;;;;;5005629;28;20214;-50
2022/06/04 05:33:28;;;;;;;4.68;4.07;;;;;;;;;;5007807;28;20283;-46
2022/06/04 05:35:55;;;;;;;4.03;3.63;;;;;;;;;;5013380;28;20252;-47
2022/06/04 05:38:22;;;;;;;4.13;3.72;;;;;;;;;;5009153;28;20257;-45
2022/06/04 05:40:51;;;;;;;7.30;3.70;;;;;;;;;;5004330;28;20850;-48
2022/06/04 05:43:18;;;;;;;5.95;3.70;;;;;;;;;;5004143;28;20287;-51
2022/06/04 05:45:45;;;;;;;4.47;3.80;;;;;;;;;;5005945;28;20219;-46
2022/06/04 05:48:12;;;;;;;5.55;3.60;;;;;;;;;;5004627;28;20230;-47
2022/06/04 05:50:39;;;;;;;6.43;3.97;;;;;;;;;;5003960;28;20327;-48
2022/06/04 05:53:06;;;;;;;6.10;3.55;;;;;;;;;;5008818;28;20224;-45
2022/06/04 05:55:37;;;;;;;5.35;3.65;;;;;;;;;;5004100;28;20236;-47
2022/06/04 05:58:04;;;;;;;7.32;3.30;;;;;;;;;;5010676;28;20308;-44
2022/06/04 06:00:31;;;;;;;3.40;3.10;;;;;;;;;;5013203;28;20280;-45
2022/06/04 06:02:58;;;;;;;4.95;3.60;;;;;;;;;;5014995;28;20221;-45
2022/06/04 06:05:25;;;;;;;4.43;3.13;;;;;;;;;;5021568;28;20232;-48
2022/06/04 06:07:53;;;;;;;6.25;4.10;;;;;;;;;;5027427;28;20233;-48
2022/06/04 06:10:20;;;;;;;5.57;3.10;;;;;;;;;;5017777;28;20234;-49
2022/06/04 06:12:48;;;;;;;3.30;3.00;;;;;;;;;;5018135;28;20217;-45
2022/06/04 06:15:15;;;;;;;5.15;3.25;;;;;;;;;;5023317;28;20217;-46
2022/06/04 06:17:42;;;;;;;4.15;2.97;;;;;;;;;;5034829;28;20546;-46
2022/06/04 06:20:09;;;;;;;3.88;3.00;;;;;;;;;;5019287;28;20715;-44
2022/06/04 06:22:36;;;;;;;4.80;3.38;;;;;;;;;;5015342;28;20260;-45
2022/06/04 06:25:05;;;;;;;5.80;3.03;;;;;;;;;;5015459;28;20240;-44
2022/06/04 06:27:33;;;;;;;6.68;2.95;;;;;;;;;;5016481;28;20225;-51
2022/06/04 06:30:00;;;;;;;3.72;2.70;;;;;;;;;;5008818;28;20222;-46
2022/06/04 06:32:27;;;;;;;3.33;2.60;;;;;;;;;;5006481;28;20224;-45
2022/06/04 06:34:54;;;;;;;4.75;2.53;;;;;;;;;;5004797;28;20259;-46
2022/06/04 06:37:21;;;;;;;5.45;2.70;;;;;;;;;;4997168;28;20229;-50
2022/06/04 06:39:49;;;;;;;4.50;2.72;;;;;;;;;;4998264;28;20225;-45
2022/06/04 06:42:15;;;;;;;4.63;2.78;;;;;;;;;;5005568;28;20234;-47
2022/06/04 06:44:53;;;;;;;6.88;2.70;;;;;;;;;;5003178;28;20225;-48
2022/06/04 06:47:21;;;;;;;4.68;2.95;;;;;;;;;;5005495;28;20226;-48
2022/06/04 06:49:48;;;;;;;5.75;3.13;;;;;;;;;;5002886;28;20537;-44
2022/06/04 06:52:16;;;;;;;4.25;3.10;;;;;;;;;;5013213;28;20217;-46
2022/06/04 06:54:43;;;;;;;3.72;2.83;;;;;;;;;;5008571;28;20217;-50
2022/06/04 06:57:11;;;;;;;3.85;2.92;;;;;;;;;;5012892;28;20225;-48
2022/06/04 06:59:43;;;;;;;8.55;3.58;;;;;;;;;;5014091;28;20229;-46
2022/06/04 07:02:10;;;;;;;4.38;2.90;;;;;;;;;;5020252;28;20232;-47
2022/06/04 07:04:37;;;;;;;9.05;2.90;;;;;;;;;;5015066;28;20228;-49
2022/06/04 07:07:04;;;;;;;5.20;3.08;;;;;;;;;;5014190;28;20233;-51
2022/06/04 07:09:37;;;;;;;5.75;3.33;;;;;;;;;;5014036;28;20244;-50
2022/06/04 07:12:06;;;;;;;5.57;3.35;;;;;;;;;;4994846;28;20225;-48
2022/06/04 07:14:33;;;;;;;8.60;3.20;;;;;;;;;;5001064;28;20225;-48
2022/06/04 07:17:03;;;;;;;7.05;2.85;;;;;;;;;;5007493;28;20261;-49
2022/06/04 07:19:30;;;;;;;6.22;3.08;;;;;;;;;;5012984;28;20228;-51
2022/06/04 07:21:57;;;;;;;3.15;2.78;;;;;;;;;;5013260;28;20710;-49
2022/06/04 07:24:25;;;;;;;5.00;2.83;;;;;;;;;;5013848;28;20706;-49
2022/06/04 07:26:52;;;;;;;4.15;2.58;;;;;;;;;;5014441;28;20329;-51
2022/06/04 07:29:20;;;;;;;8.88;2.90;;;;;;;;;;5014048;28;20225;-52
2022/06/04 07:31:47;;;;;;;6.72;2.65;;;;;;;;;;5014214;28;20279;-58
2022/06/04 07:34:14;;;;;;;4.22;2.47;;;;;;;;;;5013898;28;20561;-56
2022/06/04 07:36:48;;;;;;;6.20;2.60;;;;;;;;;;5014349;28;20626;-52
2022/06/04 07:39:18;;;;;;;5.82;2.78;;;;;;;;;;5014196;28;20233;-52
2022/06/04 07:41:51;;;;;;;3.10;2.42;;;;;;;;;;5014330;28;20290;-48
2022/06/04 07:44:19;;;;;;;4.90;2.78;;;;;;;;;;5014023;28;20255;-49
2022/06/04 07:46:47;;;;;;;4.97;2.35;;;;;;;;;;5017520;28;20344;-55
2022/06/04 07:49:15;;;;;;;3.65;2.45;;;;;;;;;;5017924;28;20228;-55
2022/06/04 07:51:43;;;;;;;4.15;2.03;;;;;;;;;;5022631;28;20217;-52
2022/06/04 07:54:10;;;;;;;3.03;2.40;;;;;;;;;;5025393;28;20739;-51
2022/06/04 07:56:38;;;;;;;2.65;1.98;;;;;;;;;;5025592;28;20232;-50
2022/06/04 07:59:07;;;;;;;2.47;2.00;;;;;;;;;;5015139;28;20563;-48
2022/06/04 08:01:34;;;;;;;4.15;2.20;;;;;;;;;;5016594;28;20565;-51
2022/06/04 08:04:01;;;;;;;3.47;1.98;;;;;;;;;;5017695;28;20233;-49
2022/06/04 08:06:31;;;;;;;4.13;2.13;;;;;;;;;;5017468;28;20566;-51
2022/06/04 08:08:58;;;;;;;6.20;2.13;;;;;;;;;;5016882;28;20235;-52
2022/06/04 08:11:33;;;;;;;5.82;2.15;;;;;;;;;;5018585;28;20232;-49
2022/06/04 08:14:08;;;;;;;4.85;2.50;;;;;;;;;;5036207;28;20243;-48
2022/06/04 08:16:36;;;;;;;6.95;2.20;;;;;;;;;;4997024;28;20269;-48
2022/06/04 08:19:05;;;;;;;59.65;3.45;;;;;;;;;;5011354;28;20523;-50
2022/06/04 08:21:34;;;;;;;15.18;2.55;;;;;;;;;;5037083;28;20231;-48
2022/06/04 08:24:01;;;;;;;3.72;2.40;;;;;;;;;;5037296;28;20220;-52
2022/06/04 08:26:28;;;;;;;3.28;2.03;;;;;;;;;;5004436;28;20226;-50
2022/06/04 08:28:55;;;;;;;8.20;2.33;;;;;;;;;;4997347;28;20273;-49
2022/06/04 08:31:23;;;;;;;4.38;2.10;;;;;;;;;;4998100;28;20233;-51
2022/06/04 08:33:50;;;;;;;3.92;1.90;;;;;;;;;;4998172;28;20221;-49
2022/06/04 08:36:19;;;;;;;2.40;1.98;;;;;;;;;;4998464;28;20641;-51
2022/06/04 08:38:46;;;;;;;3.75;1.90;;;;;;;;;;4998084;28;20210;-49
2022/06/04 08:41:24;;;;;;;4.53;1.90;;;;;;;;;;4998034;28;20661;-46
2022/06/04 08:43:51;;;;;;;3.63;2.00;;;;;;;;;;4998141;28;20691;-44
2022/06/04 08:46:43;;;;;;;8.07;1.98;;;;;;;;;;4998431;28;20210;-45
2022/06/04 08:49:17;;;;;;;2.08;1.70;;;;;;;;;;5011535;28;20208;-45
2022/06/04 08:51:44;;;;;;;3.63;1.95;;;;;;;;;;5050002;28;20194;-44
2022/06/04 09:00:01;;;;;;;29.50;4.07;;;;;;;;;;5016739;28;20200;-44
2022/06/04 09:02:51;;;;;;;6.57;2.00;;;;;;;;;;5018350;28;20189;-45
2022/06/04 09:05:32;;;;;;;15.23;5.63;;;;;;;;;;5017755;28;20201;-46
2022/06/04 09:08:04;;;;;;;25.02;9.38;;;;;;;;;;5017968;28;20237;-44
2022/06/04 09:10:40;;;;;;;19.58;3.17;;;;;;;;;;5016942;28;20194;-43
2022/06/04 09:13:23;;;;;;;11.98;3.63;;;;;;;;;;5016560;28;20625;-46
2022/06/04 09:15:52;;;;;;;9.07;3.00;;;;;;;;;;5049543;28;20190;-45
2022/06/04 09:18:31;;;;;;;6.60;2.35;;;;;;;;;;5016490;28;20228;-45
2022/06/04 09:21:01;;;;;;;5.40;2.42;;;;;;;;;;5017264;28;20189;-44
2022/06/04 09:23:35;;;;;;;2.72;1.85;;;;;;;;;;5017508;28;20260;-46
2022/06/04 09:26:21;;;;;;;3.75;2.10;;;;;;;;;;5014070;28;20186;-46
2022/06/04 09:29:02;;;;;;;2.58;2.20;;;;;;;;;;5015055;28;20193;-45
2022/06/04 09:31:32;;;;;;;6.75;2.10;;;;;;;;;;5017291;28;20189;-45
2022/06/04 09:34:06;;;;;;;3.70;2.10;;;;;;;;;;5017368;28;20185;-46
2022/06/04 09:36:35;;;;;;;3.95;2.08;;;;;;;;;;5016804;28;20292;-44
2022/06/04 09:39:06;;;;;;;8.13;2.20;;;;;;;;;;5016065;28;20201;-47
2022/06/04 09:41:34;;;;;;;2.80;2.03;;;;;;;;;;5016791;28;20189;-44
2022/06/04 09:44:14;;;;;;;8.38;2.35;;;;;;;;;;5016529;28;20209;-45
2022/06/04 09:46:46;;;;;;;3.90;2.00;;;;;;;;;;5017381;28;20193;-44
2022/06/04 09:49:40;;;;;;;3.60;2.08;;;;;;;;;;5016598;28;20267;-45
2022/06/04 09:52:20;;;;;;;3.72;1.90;;;;;;;;;;5044575;28;20198;-45
2022/06/04 09:54:58;;;;;;;2.45;1.80;;;;;;;;;;5012600;28;20209;-46
2022/06/04 09:57:37;;;;;;;2.85;2.10;;;;;;;;;;5009642;28;20236;-49
2022/06/04 10:00:19;;;;;;;4.00;2.33;;;;;;;;;;5014832;28;20228;-48
2022/06/04 10:02:59;;;;;;;5.57;2.28;;;;;;;;;;5021652;28;20219;-50
2022/06/04 10:05:30;;;;;;;4.57;2.33;;;;;;;;;;5035376;28;20189;-48
2022/06/04 10:07:58;;;;;;;2.97;2.00;;;;;;;;;;5033516;28;20713;-51
2022/06/04 10:10:37;;;;;;;7.65;2.55;;;;;;;;;;5035001;28;20210;-49
2022/06/04 10:15:59;;;;;;;9.90;2.85;;;;;;;;;;5035381;28;20255;-51
2022/06/04 10:18:29;;;;;;;6.55;2.42;;;;;;;;;;5024069;28;20300;-50
2022/06/04 10:21:23;;;;;;;5.30;2.42;;;;;;;;;;4995634;28;20218;-52
2022/06/04 10:23:54;;;;;;;20.65;2.92;;;;;;;;;;4995489;28;20201;-51
2022/06/04 10:27:06;;;;;;;4.45;2.53;;;;;;;;;;4994688;28;20272;-52
2022/06/04 10:29:34;;;;;;;11.05;2.83;;;;;;;;;;4993307;28;20609;-51
2022/06/04 10:32:13;;;;;;;10.23;2.80;;;;;;;;;;5013223;28;20292;-49
2022/06/04 10:35:14;;;;;;;30.38;8.48;;;;;;;;;;5013915;28;20232;-50
2022/06/04 10:38:03;;;;;;;5.30;3.30;;;;;;;;;;5013341;28;20240;-50
2022/06/04 10:40:39;;;;;;;10.30;4.18;;;;;;;;;;5014091;28;20229;-54
2022/06/04 10:43:41;;;;;;;6.38;3.85;;;;;;;;;;5013304;28;20606;-48
2022/06/04 10:46:23;;;;;;;7.13;3.97;;;;;;;;;;5013743;28;20233;-51
2022/06/04 10:49:06;;;;;;;8.35;3.78;;;;;;;;;;5013157;28;20310;-49
2022/06/04 10:51:40;;;;;;;8.52;4.07;;;;;;;;;;5013572;28;20260;-48
2022/06/04 10:54:26;;;;;;;6.47;3.58;;;;;;;;;;5046187;28;20217;-49
2022/06/04 10:56:58;;;;;;;8.65;3.97;;;;;;;;;;5011095;28;20251;-48
2022/06/04 10:59:34;;;;;;;10.23;4.22;;;;;;;;;;4995467;28;20175;-50
2022/06/04 11:02:15;;;;;;;10.38;4.05;;;;;;;;;;4993865;28;20617;-46
2022/06/04 11:04:46;;;;;;;7.43;3.10;;;;;;;;;;4994128;28;20190;-44
2022/06/04 11:07:21;;;;;;;4.40;3.13;;;;;;;;;;4994991;28;20248;-49
2022/06/04 11:09:50;;;;;;;5.53;3.00;;;;;;;;;;4995060;28;20197;-45
2022/06/04 11:12:23;;;;;;;7.40;3.45;;;;;;;;;;5016157;28;20231;-49
2022/06/04 11:14:58;;;;;;;5.68;3.10;;;;;;;;;;5025652;28;20721;-47
2022/06/04 11:17:40;;;;;;;4.55;3.05;;;;;;;;;;5032380;28;20235;-46
2022/06/04 11:20:26;;;;;;;5.45;2.85;;;;;;;;;;5033478;28;20225;-47
2022/06/04 11:23:09;;;;;;;5.07;3.08;;;;;;;;;;5010135;28;20229;-45
2022/06/04 11:25:38;;;;;;;11.02;3.25;;;;;;;;;;5014103;28;20221;-48
2022/06/04 11:28:09;;;;;;;9.93;3.25;;;;;;;;;;5014922;28;20644;-47
2022/06/04 11:31:07;;;;;;;5.13;2.95;;;;;;;;;;5002993;28;20281;-49
2022/06/04 11:34:07;;;;;;;5.18;3.38;;;;;;;;;;4994659;28;20217;-49
2022/06/04 11:36:49;;;;;;;9.82;3.28;;;;;;;;;;4994765;28;20198;-47
2022/06/04 11:39:25;;;;;;;6.75;2.80;;;;;;;;;;4994402;28;20257;-48
2022/06/04 11:42:06;;;;;;;4.30;2.95;;;;;;;;;;4994289;28;20256;-48
2022/06/04 11:44:54;;;;;;;8.20;3.15;;;;;;;;;;4994682;28;20590;-49
2022/06/04 11:47:44;;;;;;;4.25;3.00;;;;;;;;;;4994754;28;20234;-49
2022/06/04 11:50:35;;;;;;;3.65;2.75;;;;;;;;;;4994497;28;20209;-49
2022/06/04 11:53:18;;;;;;;5.43;2.97;;;;;;;;;;4994173;28;20238;-46
2022/06/04 11:55:55;;;;;;;4.90;3.38;;;;;;;;;;4994616;28;20555;-46
2022/06/04 11:59:01;;;;;;;5.55;3.25;;;;;;;;;;4993305;28;20214;-48
2022/06/04 12:01:33;;;;;;;9.18;3.80;;;;;;;;;;4993217;28;20526;-46
2022/06/04 12:04:15;;;;;;;10.20;4.13;;;;;;;;;;4989866;28;20232;-49
2022/06/04 12:06:48;;;;;;;9.00;4.30;;;;;;;;;;5013409;28;20240;-47
2022/06/04 12:09:30;;;;;;;10.95;3.85;;;;;;;;;;5025513;28;20515;-45
2022/06/04 12:12:37;;;;;;;5.93;4.05;;;;;;;;;;5005244;28;20628;-49
2022/06/04 12:15:14;;;;;;;6.53;4.05;;;;;;;;;;4992347;28;20825;-49
2022/06/04 12:17:52;;;;;;;5.05;4.53;;;;;;;;;;5016051;28;20267;-47
2022/06/04 12:26:38;;;;;;;10.80;4.78;;;;;;;;;;4952105;29;20207;-46
2022/06/04 12:29:23;;;;;;;5.18;4.68;;;;;;;;;;4951397;29;20607;-49
2022/06/04 12:31:59;;;;;;;6.75;5.07;;;;;;;;;;4953660;28;20223;-47
2022/06/04 12:34:37;;;;;;;7.57;5.03;;;;;;;;;;4951863;29;20602;-52
2022/06/04 12:37:06;;;;;;;8.35;5.40;;;;;;;;;;4953206;29;20199;-49
2022/06/04 12:39:38;;;;;;;8.52;5.65;;;;;;;;;;4955698;29;20199;-51
2022/06/04 12:42:13;;;;;;;9.57;7.35;;;;;;;;;;4955169;28;20203;-51
2022/06/04 12:44:43;;;;;;;9.90;8.07;;;;;;;;;;4940517;29;20199;-50
2022/06/04 12:47:28;;;;;;;8.70;7.85;;;;;;;;;;4955318;29;20200;-52
2022/06/04 12:50:18;;;;;;;9.75;8.45;;;;;;;;;;4952749;28;20227;-49
2022/06/04 12:53:07;;;;;;;8.25;7.45;;;;;;;;;;4956631;29;20687;-55
2022/06/04 12:55:57;;;;;;;9.32;7.80;;;;;;;;;;4956991;28;20231;-48
2022/06/04 12:58:35;;;;;;;9.25;7.55;;;;;;;;;;4955640;29;20235;-48
2022/06/04 13:01:05;;;;;;;9.15;8.02;;;;;;;;;;4998627;28;20225;-52
2022/06/04 13:03:35;;;;;;;9.95;6.85;;;;;;;;;;5006100;28;20384;-51
2022/06/04 13:06:02;;;;;;;8.82;7.00;;;;;;;;;;5016492;28;20320;-47
2022/06/04 13:08:29;;;;;;;7.25;6.55;;;;;;;;;;5016957;28;20631;-48
2022/06/04 13:11:12;;;;;;;9.75;6.45;;;;;;;;;;5016531;28;20316;-48
2022/06/04 13:13:45;;;;;;;9.30;7.13;;;;;;;;;;5007385;28;20635;-50
2022/06/04 13:16:26;;;;;;;8.38;6.80;;;;;;;;;;5005062;28;20233;-48
2022/06/04 13:19:08;;;;;;;61.88;9.90;;;;;;;;;;5006368;28;20249;-48
2022/06/04 13:21:43;;;;;;;16.70;8.38;;;;;;;;;;4996616;28;20226;-50
2022/06/04 13:24:16;;;;;;;10.65;8.98;;;;;;;;;;4996951;28;20234;-48
2022/06/04 13:26:52;;;;;;;13.13;9.38;;;;;;;;;;4995595;28;20260;-49
2022/06/04 13:29:29;;;;;;;14.95;9.70;;;;;;;;;;4996189;28;20248;-50
2022/06/04 13:32:00;;;;;;;11.73;9.82;;;;;;;;;;4996797;28;20232;-48
2022/06/04 13:34:33;;;;;;;15.60;10.02;;;;;;;;;;4996317;28;20257;-51
2022/06/04 13:37:03;;;;;;;15.52;11.00;;;;;;;;;;4996747;28;20276;-47
2022/06/04 13:39:32;;;;;;;13.38;10.75;;;;;;;;;;5013223;28;20668;-48
2022/06/04 13:42:02;;;;;;;13.90;12.48;;;;;;;;;;5015268;28;20268;-47
2022/06/04 13:44:37;;;;;;;13.23;11.95;;;;;;;;;;5015553;28;20601;-51
2022/06/04 13:47:22;;;;;;;12.82;11.52;;;;;;;;;;5016035;28;20237;-51
2022/06/04 13:50:10;;;;;;;15.98;11.45;;;;;;;;;;5015554;28;20252;-51
2022/06/04 13:52:42;;;;;;;17.80;13.00;;;;;;;;;;5015616;28;20217;-51
2022/06/04 13:55:16;;;;;;;14.27;11.02;;;;;;;;;;5015931;28;20243;-52
2022/06/04 13:57:46;;;;;;;13.85;11.85;;;;;;;;;;5015422;28;20229;-47
2022/06/04 14:00:23;;;;;;;14.15;11.70;;;;;;;;;;5015926;28;20229;-50
2022/06/04 14:02:53;;;;;;;17.58;12.15;;;;;;;;;;5014823;28;20248;-43
2022/06/04 14:05:44;;;;;;;13.48;12.07;;;;;;;;;;5015298;28;20236;-44
2022/06/04 14:08:15;;;;;;;13.73;12.00;;;;;;;;;;5006156;28;20557;-43
2022/06/04 14:11:00;;;;;;;12.80;11.48;;;;;;;;;;5012429;28;20692;-44
2022/06/04 14:13:53;;;;;;;12.75;11.45;;;;;;;;;;5015761;28;20244;-46
2022/06/04 14:16:20;;;;;;;12.77;11.52;;;;;;;;;;5006909;28;20668;-49
2022/06/04 14:19:06;;;;;;;14.82;11.75;;;;;;;;;;5013504;28;20225;-47
2022/06/04 14:21:48;;;;;;;13.23;11.82;;;;;;;;;;4995417;28;20685;-48
2022/06/04 14:24:31;;;;;;;12.88;11.57;;;;;;;;;;4996373;28;20529;-50
2022/06/04 14:27:36;;;;;;;14.60;12.10;;;;;;;;;;5002968;28;20283;-50
2022/06/04 14:30:14;;;;;;;14.00;12.57;;;;;;;;;;5005513;28;20210;-47
2022/06/04 14:32:48;;;;;;;15.65;12.55;;;;;;;;;;5001517;28;20648;-47
2022/06/04 14:35:30;;;;;;;13.00;11.52;;;;;;;;;;5004823;28;20236;-46
2022/06/04 14:38:05;;;;;;;12.25;11.02;;;;;;;;;;5005482;28;20249;-48
2022/06/04 14:41:11;;;;;;;13.88;12.48;;;;;;;;;;5004345;28;20213;-45
2022/06/04 14:44:07;;;;;;;12.90;11.63;;;;;;;;;;5010349;28;20696;-47
2022/06/04 14:46:57;;;;;;;17.35;12.00;;;;;;;;;;4993419;28;20214;-44
2022/06/04 14:49:37;;;;;;;14.10;11.50;;;;;;;;;;5004815;28;20245;-44
2022/06/04 14:52:10;;;;;;;12.98;11.75;;;;;;;;;;5004223;28;20706;-44
2022/06/04 14:54:37;;;;;;;15.75;11.68;;;;;;;;;;5004875;28;20225;-46
2022/06/04 14:57:17;;;;;;;12.82;11.43;;;;;;;;;;5001891;28;20218;-45
2022/06/04 14:59:54;;;;;;;12.75;11.45;;;;;;;;;;4994986;28;20233;-46
2022/06/04 15:02:43;;;;;;;13.48;11.82;;;;;;;;;;4995293;28;20225;-44
2022/06/04 15:05:40;;;;;;;12.52;10.95;;;;;;;;;;5000094;28;20218;-43
2022/06/04 15:08:27;;;;;;;13.55;10.48;;;;;;;;;;5013607;28;20578;-44
2022/06/04 15:11:19;;;;;;;12.05;10.57;;;;;;;;;;5014826;28;20283;-44
2022/06/04 15:14:17;;;;;;;10.57;9.48;;;;;;;;;;5014501;28;20225;-45
2022/06/04 15:17:03;;;;;;;11.75;9.68;;;;;;;;;;5014424;28;20695;-44
2022/06/04 15:19:34;;;;;;;13.57;10.93;;;;;;;;;;5013503;28;20248;-44
2022/06/04 15:22:13;;;;;;;11.55;9.98;;;;;;;;;;5014477;28;20225;-45
2022/06/04 15:25:05;;;;;;;11.68;10.48;;;;;;;;;;5014360;28;20695;-46
2022/06/04 15:28:09;;;;;;;13.88;10.48;;;;;;;;;;5014892;28;20291;-44
2022/06/04 15:36:30;;;;;;;12.68;11.35;;;;;;;;;;5013669;28;20232;-44
2022/06/04 15:39:07;;;;;;;13.70;12.30;;;;;;;;;;4974549;28;20233;-44
2022/06/04 15:41:52;;;;;;;13.57;11.57;;;;;;;;;;5013764;28;20229;-45
2022/06/04 15:44:20;;;;;;;15.85;11.63;;;;;;;;;;5013475;28;20237;-44
2022/06/04 15:46:50;;;;;;;13.70;12.05;;;;;;;;;;5014476;28;20221;-45
2022/06/04 15:55:54;;;;;;;13.57;11.88;;;;;;;;;;5014382;28;20221;-44